Time;durP1;ratioP1;P1;durP2;ratioP2;P2;SDS_P1;SDS_P2;PMS_P1;PMS_P2;Temp;Humidity;BMP_temperature;BMP_pressure;BME280_temperature;BME280_humidity;BME280_pressure;Samples;Min_cycle;Max_cycle;Signal;HPM_P1;HPM_P2
2023/06/13 00:04:21;;;;;;;3.97;2.33;;;;;;;17.36;41.35;101929.59;10269267;28;20057;-77
2023/06/13 00:09:24;;;;;;;4.35;2.65;;;;;;;17.35;41.27;101922.34;10270919;28;20059;-78
2023/06/13 00:14:26;;;;;;;3.85;2.50;;;;;;;16.99;41.38;101919.97;10284112;28;20043;-77
2023/06/13 00:19:29;;;;;;;4.25;2.90;;;;;;;17.11;41.75;101917.63;10281280;28;20035;-78
2023/06/13 00:24:31;;;;;;;6.50;2.70;;;;;;;17.31;40.56;101910.19;10279684;29;20043;-78
2023/06/13 00:29:33;;;;;;;5.43;2.60;;;;;;;17.32;41.24;101906.31;10299828;28;20055;-79
2023/06/13 00:34:38;;;;;;;4.10;2.28;;;;;;;17.20;40.72;101905.91;10286330;28;20055;-78
2023/06/13 00:39:40;;;;;;;5.72;2.33;;;;;;;17.03;41.25;101889.72;10280565;29;20027;-78
2023/06/13 00:44:43;;;;;;;4.55;2.60;;;;;;;17.27;40.74;101903.59;10279744;28;20059;-78
2023/06/13 00:49:46;;;;;;;4.38;2.42;;;;;;;16.99;40.66;101902.50;10283386;28;20036;-78
2023/06/13 00:54:48;;;;;;;7.78;2.72;;;;;;;16.99;41.43;101899.75;10275960;28;20059;-78
2023/06/13 00:59:50;;;;;;;5.15;2.60;;;;;;;17.20;41.07;101906.75;10280626;28;20410;-78
2023/06/13 01:04:53;;;;;;;6.25;2.70;;;;;;;17.16;41.07;101903.69;10278961;28;20055;-77
2023/06/13 01:09:56;;;;;;;6.03;2.58;;;;;;;16.98;41.42;101909.19;10283153;28;20035;-78
2023/06/13 01:15:06;;;;;;;4.10;2.67;;;;;;;16.47;42.66;101913.22;10277509;28;20549;-78
2023/06/13 01:20:10;;;;;;;11.77;3.63;;;;;;;15.92;43.63;101904.19;10264034;28;20415;-78
2023/06/13 01:25:37;;;;;;;7.60;3.30;;;;;;;15.57;44.27;101919.03;10283615;29;20058;-78
2023/06/13 01:30:40;;;;;;;6.10;3.47;;;;;;;15.27;45.53;101906.16;10286139;28;20051;-78
2023/06/13 01:35:44;;;;;;;13.35;4.22;;;;;;;15.16;45.43;101910.06;10281324;28;20048;-77
2023/06/13 01:40:48;;;;;;;8.75;3.40;;;;;;;15.29;44.66;101903.94;10272090;28;20506;-78
2023/06/13 01:45:56;;;;;;;6.85;3.15;;;;;;;15.57;45.64;101902.44;10272426;28;20055;-78
2023/06/13 01:51:14;;;;;;;5.97;2.92;;;;;;;15.85;45.25;101900.94;10241919;28;20050;-78
2023/06/13 01:56:22;;;;;;;5.60;3.03;;;;;;;16.50;44.45;101906.28;10252606;28;20388;-78
2023/06/13 02:01:30;;;;;;;7.22;3.35;;;;;;;17.16;44.31;101898.16;10264819;28;20514;-78
2023/06/13 02:06:33;;;;;;;7.38;3.72;;;;;;;17.41;44.73;101899.81;10277650;28;20054;-78
2023/06/13 02:11:35;;;;;;;6.82;3.20;;;;;;;17.62;43.39;101900.38;10282036;29;20138;-78
2023/06/13 02:16:39;;;;;;;5.07;3.05;;;;;;;17.80;43.85;101901.56;10284170;28;20039;-78
2023/06/13 02:21:45;;;;;;;6.53;3.60;;;;;;;18.06;43.71;101902.84;10277216;28;20058;-77
2023/06/13 02:26:50;;;;;;;9.52;4.13;;;;;;;18.00;43.60;101903.19;10254812;28;20047;-77
2023/06/13 02:31:53;;;;;;;9.75;3.33;;;;;;;18.13;43.42;101909.97;10279981;28;20050;-76
2023/06/13 02:36:56;;;;;;;9.05;4.40;;;;;;;18.34;43.29;101909.34;10278203;29;20445;-77
2023/06/13 02:41:58;;;;;;;9.32;3.67;;;;;;;18.45;41.67;101911.97;10280008;28;20039;-77
2023/06/13 02:47:01;;;;;;;8.75;3.75;;;;;;;18.34;43.04;101906.56;10278272;29;20047;-77
2023/06/13 02:52:03;;;;;;;7.85;3.85;;;;;;;18.14;43.77;101920.78;10286622;28;20037;-77
2023/06/13 02:57:07;;;;;;;9.68;4.20;;;;;;;18.66;43.36;101916.06;10267989;29;20051;-77
2023/06/13 03:02:10;;;;;;;19.75;4.75;;;;;;;19.07;43.26;101923.66;10277008;28;20066;-77
2023/06/13 03:07:16;;;;;;;15.55;4.93;;;;;;;19.28;42.92;101919.38;10264510;29;20047;-77
2023/06/13 03:12:19;;;;;;;10.23;4.23;;;;;;;19.50;42.02;101919.47;10265487;28;20055;-76
2023/06/13 03:17:25;;;;;;;17.58;4.88;;;;;;;19.79;41.24;101933.09;10263120;29;20047;-77
2023/06/13 03:22:28;;;;;;;11.18;4.70;;;;;;;19.98;40.06;101921.81;10287188;28;20047;-77
2023/06/13 03:27:33;;;;;;;15.15;4.70;;;;;;;19.91;40.30;101920.56;10280572;28;20418;-77
2023/06/13 03:32:36;;;;;;;11.68;4.53;;;;;;;20.13;39.56;101920.59;10281826;28;20043;-76
2023/06/13 03:37:38;;;;;;;12.38;4.53;;;;;;;20.23;38.55;101908.41;10283974;28;20090;-77
2023/06/13 03:42:41;;;;;;;12.15;4.00;;;;;;;20.49;39.59;101909.47;10284462;28;20039;-78
2023/06/13 03:47:43;;;;;;;12.43;4.10;;;;;;;20.95;37.33;101906.28;10270166;29;20043;-77
2023/06/13 03:52:46;;;;;;;7.30;4.22;;;;;;;21.13;36.55;101901.59;10268297;29;20047;-76
2023/06/13 03:57:48;;;;;;;5.53;3.05;;;;;;;21.63;34.75;101902.13;10242637;28;20051;-76
2023/06/13 04:02:52;;;;;;;8.85;3.65;;;;;;;22.25;33.48;101898.28;10257868;28;20055;-77
2023/06/13 04:07:55;;;;;;;7.45;3.67;;;;;;;22.40;33.31;101897.78;10283515;28;20051;-77
2023/06/13 04:12:57;;;;;;;6.00;3.15;;;;;;;22.91;32.29;101892.41;10285677;28;20047;-76
2023/06/13 04:18:01;;;;;;;6.45;3.30;;;;;;;23.05;31.60;101893.81;10265084;28;20032;-76
2023/06/13 04:23:03;;;;;;;6.35;3.35;;;;;;;23.44;31.17;101884.28;10261601;28;20046;-77
2023/06/13 04:28:07;;;;;;;5.03;3.13;;;;;;;23.76;31.01;101879.94;10277303;28;20059;-77
2023/06/13 04:33:14;;;;;;;8.00;3.30;;;;;;;23.88;30.64;101876.41;10284780;28;20095;-77
2023/06/13 04:38:20;;;;;;;5.97;2.92;;;;;;;24.27;30.04;101879.88;10284184;28;20039;-77
2023/06/13 04:43:22;;;;;;;7.68;3.50;;;;;;;24.88;29.61;101874.47;10274310;28;20056;-77
2023/06/13 04:48:25;;;;;;;6.45;3.08;;;;;;;24.97;29.90;101869.56;10261019;28;20040;-77
2023/06/13 04:53:29;;;;;;;9.60;3.30;;;;;;;25.18;29.10;101856.28;10274658;28;20397;-77
2023/06/13 04:58:31;;;;;;;9.68;3.28;;;;;;;25.32;28.09;101866.31;10276255;28;20058;-77
2023/06/13 05:03:34;;;;;;;5.47;3.63;;;;;;;25.69;27.73;101862.38;10270353;28;20047;-77
2023/06/13 05:08:37;;;;;;;4.47;2.88;;;;;;;26.07;27.64;101855.44;10278446;28;20050;-78
2023/06/13 05:13:39;;;;;;;4.45;2.75;;;;;;;26.28;26.68;101858.88;10282404;28;20047;-77
2023/06/13 05:18:41;;;;;;;3.67;2.33;;;;;;;26.63;26.78;101856.25;10284075;28;20110;-77
2023/06/13 05:23:44;;;;;;;5.35;2.42;;;;;;;26.84;26.16;101853.19;10276475;28;20051;-78
2023/06/13 05:28:47;;;;;;;3.38;2.28;;;;;;;27.32;25.11;101857.63;10270612;28;20047;-78
2023/06/13 05:33:49;;;;;;;2.75;2.15;;;;;;;27.69;24.83;101851.66;10273746;28;20082;-78
2023/06/13 05:38:51;;;;;;;6.80;2.13;;;;;;;28.16;23.69;101843.00;10290495;28;20058;-78
2023/06/13 05:43:53;;;;;;;2.28;1.80;;;;;;;28.23;24.21;101847.97;10281605;29;20071;-76
2023/06/13 05:48:56;;;;;;;4.18;1.90;;;;;;;28.45;23.96;101841.56;10284017;28;20097;-77
2023/06/13 05:53:59;;;;;;;3.15;2.10;;;;;;;28.54;23.50;101841.34;10282295;28;20043;-77
2023/06/13 05:59:01;;;;;;;1.90;1.58;;;;;;;28.70;22.89;101827.13;10271028;28;20058;-77
2023/06/13 06:04:03;;;;;;;2.92;1.60;;;;;;;28.77;23.17;101836.50;10259521;28;20051;-78
2023/06/13 06:09:06;;;;;;;2.65;1.50;;;;;;;28.68;23.54;101830.31;10281121;28;20466;-78
2023/06/13 06:14:08;;;;;;;4.40;1.50;;;;;;;28.69;23.56;101828.31;10281509;28;20039;-79
2023/06/13 06:19:10;;;;;;;1.60;1.48;;;;;;;28.49;22.81;101825.53;10256992;28;20071;-78
2023/06/13 06:24:13;;;;;;;1.98;1.55;;;;;;;29.24;22.32;101826.03;10272554;28;20149;-78
2023/06/13 06:29:16;;;;;;;3.07;1.60;;;;;;;29.39;21.91;101823.03;10272248;28;20147;-78
2023/06/13 06:34:18;;;;;;;4.07;1.50;;;;;;;29.41;22.35;101820.63;10262250;28;20047;-78
2023/06/13 06:39:21;;;;;;;1.88;1.48;;;;;;;29.46;22.25;101828.00;10279655;28;20038;-77
2023/06/13 06:44:24;;;;;;;1.63;1.50;;;;;;;29.87;21.91;101811.19;10272263;28;20051;-77
2023/06/13 06:49:26;;;;;;;2.33;1.52;;;;;;;29.57;21.99;101817.66;10270587;28;20058;-80
2023/06/13 06:54:28;;;;;;;2.40;1.90;;;;;;;29.73;22.26;101811.81;10272717;28;20054;-81
2023/06/13 06:59:30;;;;;;;3.75;1.90;;;;;;;29.98;21.73;101810.09;10277837;28;20047;-79
2023/06/13 07:04:33;;;;;;;1.90;1.70;;;;;;;28.93;22.76;101813.81;10267572;28;20054;-78
2023/06/13 07:09:35;;;;;;;1.40;1.27;;;;;;;29.01;23.23;101804.28;10275772;28;20047;-82
2023/06/13 07:14:37;;;;;;;2.22;1.80;;;;;;;28.88;22.69;101804.84;10292644;28;20035;-87
2023/06/13 07:19:39;;;;;;;2.45;1.50;;;;;;;28.96;23.08;101804.56;10274600;28;20063;-83
2023/06/13 07:24:42;;;;;;;3.55;1.70;;;;;;;29.23;23.64;101808.25;10275330;28;20054;-83
2023/06/13 07:29:44;;;;;;;2.40;1.87;;;;;;;29.15;23.46;101800.00;10278831;28;20040;-86
2023/06/13 07:34:48;;;;;;;1.98;1.63;;;;;;;29.46;23.52;101798.91;10270548;29;20056;-83
2023/06/13 07:39:50;;;;;;;;;;;;;;;29.93;22.87;101793.47;10263101;29;20055;-85
2023/06/13 07:44:52;;;;;;;6.85;1.95;;;;;;;29.15;24.07;101803.66;10254973;29;20489;-84
2023/06/13 07:49:54;;;;;;;2.20;1.63;;;;;;;29.92;23.27;101793.84;10264915;29;21418;-87
2023/06/13 07:55:15;;;;;;;1.60;1.50;;;;;;;29.70;22.13;101790.75;10272854;29;20059;-87
2023/06/13 08:00:37;;;;;;;2.88;1.48;;;;;;;29.30;23.02;101780.06;10270821;28;20087;-79
2023/06/13 08:05:58;;;;;;;2.17;1.45;;;;;;;30.07;21.97;101777.88;10274498;28;20051;-79
2023/06/13 08:11:00;;;;;;;3.97;1.77;;;;;;;30.14;22.42;101783.63;10268721;28;20050;-80
2023/06/13 08:16:03;;;;;;;2.10;1.65;;;;;;;29.06;21.68;101775.69;10268631;28;20055;-81
2023/06/13 08:21:05;;;;;;;3.63;1.48;;;;;;;29.49;21.81;101778.31;10276647;28;20399;-80
2023/06/13 08:26:08;;;;;;;1.83;1.25;;;;;;;29.98;21.01;101776.13;10283540;28;20063;-77
2023/06/13 08:31:10;;;;;;;3.15;1.50;;;;;;;29.53;21.23;101779.22;10284831;28;20086;-80
2023/06/13 08:36:12;;;;;;;2.65;1.77;;;;;;;28.04;22.74;101781.06;10284343;28;20047;-78
2023/06/13 08:41:15;;;;;;;2.08;1.55;;;;;;;28.56;22.55;101768.34;10275656;28;20411;-77
2023/06/13 08:46:17;;;;;;;2.30;1.70;;;;;;;29.54;21.09;101772.34;10283023;28;20075;-77
2023/06/13 08:51:21;;;;;;;2.63;1.50;;;;;;;29.64;20.36;101766.81;10267783;29;20042;-77
2023/06/13 08:56:25;;;;;;;2.15;1.95;;;;;;;29.17;20.60;101760.91;10282397;29;20059;-77
2023/06/13 09:01:28;;;;;;;1.90;1.67;;;;;;;29.00;20.01;101767.91;10280603;29;20053;-77
2023/06/13 09:06:33;;;;;;;2.85;1.45;;;;;;;29.05;21.14;101759.91;10285251;29;20039;-76
2023/06/13 09:11:36;;;;;;;2.55;1.70;;;;;;;29.05;21.10;101751.44;10283915;29;20050;-76
2023/06/13 09:16:39;;;;;;;3.28;1.67;;;;;;;28.86;21.34;101742.22;10280686;29;20053;-76
2023/06/13 09:21:43;;;;;;;1.50;1.33;;;;;;;28.17;22.88;101742.22;10276234;28;20055;-77
2023/06/13 09:26:45;;;;;;;3.22;1.40;;;;;;;27.83;22.70;101733.50;10285571;29;20441;-76
2023/06/13 09:31:49;;;;;;;1.70;1.60;;;;;;;26.98;23.33;101734.41;10284952;28;20502;-76
2023/06/13 09:36:51;;;;;;;3.10;1.30;;;;;;;26.01;23.75;101736.72;10282831;29;20058;-76
2023/06/13 09:41:57;;;;;;;2.30;1.45;;;;;;;25.40;24.01;101728.53;10270379;29;20506;-75
2023/06/13 09:47:00;;;;;;;5.03;1.42;;;;;;;25.17;25.25;101719.00;10287202;29;20047;-77
2023/06/13 09:52:04;;;;;;;2.80;1.58;;;;;;;25.54;24.63;101711.28;10283896;28;20043;-75
2023/06/13 09:57:07;;;;;;;2.00;1.60;;;;;;;25.58;24.51;101712.19;10275436;29;20043;-76
2023/06/13 10:02:09;;;;;;;3.88;1.80;;;;;;;25.42;24.07;101697.25;10277611;28;20080;-76
2023/06/13 10:07:11;;;;;;;3.05;1.80;;;;;;;25.02;25.20;101691.63;10280002;29;20054;-77
2023/06/13 10:12:18;;;;;;;1.60;1.50;;;;;;;24.99;25.83;101678.25;10279816;28;20035;-76
2023/06/13 10:17:21;;;;;;;2.50;1.33;;;;;;;25.19;25.85;101685.75;10293144;28;20043;-77
2023/06/13 10:22:23;;;;;;;2.08;1.50;;;;;;;25.14;25.97;101681.16;10277266;29;21357;-81
2023/06/13 10:27:25;;;;;;;2.35;1.60;;;;;;;25.01;26.31;101676.78;10278497;28;20047;-80
2023/06/13 10:32:28;;;;;;;6.82;2.20;;;;;;;25.06;26.34;101670.09;10283162;29;20047;-79
2023/06/13 10:37:32;;;;;;;2.40;1.70;;;;;;;25.13;26.64;101667.50;10276132;28;20047;-79
2023/06/13 10:42:44;;;;;;;3.03;2.22;;;;;;;24.94;26.69;101643.63;10269364;28;20050;-80
2023/06/13 10:47:46;;;;;;;5.13;2.55;;;;;;;24.91;27.03;101641.53;10277459;28;20047;-81
2023/06/13 10:52:54;;;;;;;2.17;1.80;;;;;;;24.48;27.41;101636.59;10264841;29;20047;-79
2023/06/13 10:57:56;;;;;;;3.20;1.80;;;;;;;24.39;28.40;101640.66;10278163;29;20054;-79
2023/06/13 11:03:10;;;;;;;2.35;2.00;;;;;;;24.65;27.08;101630.72;10281100;28;20066;-79
2023/06/13 11:08:22;;;;;;;4.05;2.20;;;;;;;24.71;27.99;101622.88;10280717;29;20047;-79
2023/06/13 11:13:26;;;;;;;1.90;1.60;;;;;;;24.73;27.92;101620.53;10278805;28;20403;-79
2023/06/13 11:18:33;;;;;;;2.17;1.70;;;;;;;24.71;27.40;101617.25;10271374;28;20047;-79
2023/06/13 11:23:35;;;;;;;4.95;2.00;;;;;;;24.76;28.23;101605.78;10281638;29;20553;-78
2023/06/13 11:28:37;;;;;;;3.33;1.83;;;;;;;24.86;27.47;101599.69;10266018;29;20598;-78
2023/06/13 11:33:43;;;;;;;2.85;1.70;;;;;;;24.79;26.97;101596.63;10248637;29;20043;-78
2023/06/13 11:39:00;;;;;;;2.80;1.70;;;;;;;24.51;28.05;101598.56;10280239;29;20414;-80
2023/06/13 11:44:03;;;;;;;2.20;1.80;;;;;;;24.58;27.61;101584.75;10279899;29;20051;-80
2023/06/13 11:49:05;;;;;;;3.75;1.67;;;;;;;24.74;27.32;101568.81;10281836;29;20047;-80
2023/06/13 11:54:08;;;;;;;2.50;1.95;;;;;;;24.58;28.19;101577.16;10277984;28;20047;-80
2023/06/13 11:59:20;;;;;;;3.92;1.90;;;;;;;24.57;27.90;101560.66;10289315;29;20047;-80
2023/06/13 12:04:23;;;;;;;2.90;1.85;;;;;;;24.76;28.51;101555.25;10289339;29;20051;-79
2023/06/13 12:09:26;;;;;;;6.18;1.83;;;;;;;24.44;29.56;101559.88;10288101;28;20083;-80
2023/06/13 12:14:30;;;;;;;2.75;1.63;;;;;;;24.31;29.75;101553.47;10285474;28;20055;-80
2023/06/13 12:19:32;;;;;;;5.00;1.92;;;;;;;24.01;29.75;101532.44;10287373;28;20062;-80
2023/06/13 12:24:34;;;;;;;3.55;2.05;;;;;;;23.90;29.52;101536.84;10284853;28;20125;-80
2023/06/13 12:29:39;;;;;;;3.50;2.17;;;;;;;23.87;30.21;101529.16;10287421;29;20043;-79
2023/06/13 12:34:45;;;;;;;4.28;2.50;;;;;;;23.94;29.45;101526.56;10277191;29;20054;-81
2023/06/13 12:40:09;;;;;;;2.50;1.95;;;;;;;23.93;29.59;101525.75;10280265;29;20073;-77
2023/06/13 12:45:11;;;;;;;3.83;2.28;;;;;;;23.83;29.66;101520.63;10275114;28;20044;-76
2023/06/13 12:50:14;;;;;;;2.50;1.90;;;;;;;23.74;29.67;101520.72;10299601;28;20039;-76
2023/06/13 12:55:24;;;;;;;2.60;1.95;;;;;;;23.71;29.50;101517.81;10282454;28;20050;-77
2023/06/13 13:00:26;;;;;;;3.70;1.85;;;;;;;23.59;29.53;101520.59;10274695;29;20740;-76
2023/06/13 13:05:30;;;;;;;2.42;2.00;;;;;;;23.54;29.59;101512.38;10280391;28;20050;-76
2023/06/13 13:10:33;;;;;;;3.40;1.83;;;;;;;23.58;29.99;101514.16;10282525;28;20039;-75
2023/06/13 13:15:35;;;;;;;2.38;1.70;;;;;;;23.48;29.49;101514.59;10282264;28;20422;-76
2023/06/13 13:20:39;;;;;;;3.72;2.00;;;;;;;23.51;30.32;101513.91;10283745;28;20055;-77
2023/06/13 13:25:41;;;;;;;3.60;1.98;;;;;;;23.54;29.69;101506.78;10277839;28;20051;-76
2023/06/13 13:30:44;;;;;;;3.30;1.80;;;;;;;23.38;29.91;101509.44;10281780;28;20039;-77
2023/06/13 13:35:46;;;;;;;2.60;1.80;;;;;;;23.35;30.45;101510.94;10274160;28;20047;-77
2023/06/13 13:40:49;;;;;;;2.97;1.92;;;;;;;23.38;31.11;101503.84;10280423;29;20466;-83
2023/06/13 13:45:51;;;;;;;4.97;1.80;;;;;;;23.36;31.17;101489.38;10280011;28;20413;-81
2023/06/13 13:50:54;;;;;;;4.45;1.80;;;;;;;23.29;30.81;101495.53;10277902;28;20433;-80
2023/06/13 13:55:56;;;;;;;5.50;2.28;;;;;;;23.20;30.83;101486.41;10278914;28;20136;-76
2023/06/13 14:00:59;;;;;;;4.43;2.25;;;;;;;23.16;31.01;101488.28;10280487;28;20047;-79
2023/06/13 14:06:01;;;;;;;2.50;2.00;;;;;;;23.05;31.26;101485.06;10282900;29;20524;-80
2023/06/13 14:11:03;;;;;;;3.33;1.90;;;;;;;23.06;31.46;101480.28;10287765;29;20520;-78
2023/06/13 14:16:05;;;;;;;2.25;1.63;;;;;;;23.09;31.58;101477.66;10280632;28;20419;-77
2023/06/13 14:21:08;;;;;;;4.25;1.80;;;;;;;23.15;31.15;101472.63;10279886;28;20051;-80
2023/06/13 14:26:10;;;;;;;7.13;2.10;;;;;;;22.99;31.29;101483.66;10267633;28;20047;-79
2023/06/13 14:31:12;;;;;;;3.03;1.80;;;;;;;22.95;31.50;101477.13;10274960;28;20040;-80
2023/06/13 14:36:14;;;;;;;2.75;2.10;;;;;;;22.99;31.21;101468.84;10274300;28;20050;-77
2023/06/13 14:41:17;;;;;;;7.35;2.10;;;;;;;22.97;31.47;101465.59;10274990;28;20058;-78
2023/06/13 14:46:19;;;;;;;3.60;1.67;;;;;;;22.92;31.36;101468.63;10272556;28;20058;-79
2023/06/13 14:51:21;;;;;;;3.13;1.85;;;;;;;22.86;31.16;101465.19;10281791;28;20043;-83
2023/06/13 14:56:24;;;;;;;4.30;2.10;;;;;;;22.68;31.15;101464.50;10280499;28;20059;-82
2023/06/13 15:01:27;;;;;;;2.47;1.92;;;;;;;22.58;32.06;101450.13;10280298;28;20054;-83
2023/06/13 15:06:31;;;;;;;2.08;1.83;;;;;;;22.52;31.98;101450.31;10287861;28;20064;-85
2023/06/13 15:11:33;;;;;;;3.88;2.00;;;;;;;22.54;32.03;101447.19;10267537;28;20043;-84
2023/06/13 15:16:38;;;;;;;2.67;1.88;;;;;;;22.47;31.72;101446.94;10268653;28;20055;-83
2023/06/13 15:21:41;;;;;;;3.42;2.00;;;;;;;22.43;31.75;101444.00;10279463;28;20039;-77
2023/06/13 15:26:43;;;;;;;2.75;2.20;;;;;;;22.44;32.76;101437.25;10265616;28;20058;-78
2023/06/13 15:31:45;;;;;;;3.60;2.22;;;;;;;22.42;32.45;101445.16;10284668;28;20415;-78
2023/06/13 15:36:47;;;;;;;6.35;2.25;;;;;;;22.43;32.84;101444.00;10283883;28;20050;-79
2023/06/13 15:41:49;;;;;;;2.72;1.95;;;;;;;22.37;32.31;101439.75;10279901;28;20043;-79
2023/06/13 15:46:52;;;;;;;3.30;2.10;;;;;;;22.24;32.39;101438.09;10275466;28;20054;-77
2023/06/13 15:51:54;;;;;;;3.10;1.92;;;;;;;22.24;32.34;101441.69;10269613;28;20036;-78
2023/06/13 15:56:56;;;;;;;2.50;2.10;;;;;;;22.26;32.15;101441.34;10285983;28;20055;-77
2023/06/13 16:01:59;;;;;;;3.83;2.40;;;;;;;22.27;32.62;101443.81;10285720;28;20043;-78
2023/06/13 16:07:01;;;;;;;2.50;1.95;;;;;;;22.14;32.09;101435.69;10277751;28;20046;-77
2023/06/13 16:12:04;;;;;;;2.63;2.22;;;;;;;22.07;32.46;101435.41;10285375;28;20046;-76
2023/06/13 16:17:06;;;;;;;1.98;1.70;;;;;;;22.00;32.50;101432.28;10286357;28;20035;-78
2023/06/13 16:22:09;;;;;;;5.22;2.10;;;;;;;21.96;31.99;101427.38;10283764;28;20042;-76
2023/06/13 16:27:11;;;;;;;3.85;1.90;;;;;;;21.94;31.51;101435.28;10289597;28;20437;-76
2023/06/13 16:32:13;;;;;;;2.13;1.63;;;;;;;21.91;31.80;101435.97;10293890;28;20035;-76
2023/06/13 16:37:16;;;;;;;1.98;1.73;;;;;;;21.91;31.66;101424.78;10276825;28;20055;-75
2023/06/13 16:42:18;;;;;;;3.15;2.08;;;;;;;21.86;31.58;101424.97;10276587;28;20051;-76
2023/06/13 16:47:20;;;;;;;4.72;1.77;;;;;;;21.74;31.71;101427.69;10279384;28;20061;-74
2023/06/13 16:52:24;;;;;;;5.75;2.28;;;;;;;21.63;32.08;101418.88;10284294;28;20047;-75
2023/06/13 16:57:26;;;;;;;2.88;1.58;;;;;;;21.56;32.43;101417.78;10284036;28;20066;-77
2023/06/13 17:02:29;;;;;;;6.03;2.10;;;;;;;21.45;32.14;101414.53;10282040;28;20514;-77
2023/06/13 17:07:31;;;;;;;3.22;2.00;;;;;;;21.45;32.77;101413.72;10283606;28;20054;-77
2023/06/13 17:12:37;;;;;;;4.85;2.08;;;;;;;21.34;32.98;101411.28;10280312;28;20039;-75
2023/06/13 17:17:39;;;;;;;2.80;1.60;;;;;;;21.30;33.23;101407.53;10262281;28;20051;-76
2023/06/13 17:22:42;;;;;;;3.22;1.52;;;;;;;21.20;33.49;101410.69;10275335;28;20035;-74
2023/06/13 17:27:45;;;;;;;5.68;2.10;;;;;;;21.09;33.50;101409.41;10266461;28;20642;-75
2023/06/13 17:32:48;;;;;;;2.97;1.73;;;;;;;20.98;33.93;101402.53;10268472;28;20040;-78
2023/06/13 17:37:50;;;;;;;4.25;1.90;;;;;;;20.86;34.63;101394.06;10277675;28;20047;-77
2023/06/13 17:42:52;;;;;;;2.40;1.60;;;;;;;20.75;34.97;101404.72;10283657;28;20048;-76
2023/06/13 17:47:55;;;;;;;4.65;1.80;;;;;;;20.65;35.40;101393.91;10275877;28;20047;-78
2023/06/13 17:52:58;;;;;;;4.03;1.80;;;;;;;20.66;35.56;101399.19;10280386;28;20062;-76
2023/06/13 17:58:01;;;;;;;5.93;2.30;;;;;;;20.60;35.72;101397.69;10281513;28;20039;-77
2023/06/13 18:03:03;;;;;;;6.95;2.22;;;;;;;20.49;36.15;101393.63;10282094;28;20035;-81
2023/06/13 18:08:06;;;;;;;2.75;1.80;;;;;;;20.45;36.35;101393.44;10280377;29;20047;-75
2023/06/13 18:13:08;;;;;;;4.97;1.85;;;;;;;20.50;36.46;101394.44;10280576;29;20058;-75
2023/06/13 18:18:10;;;;;;;3.50;2.35;;;;;;;20.45;37.33;101396.22;10281891;28;20047;-76
2023/06/13 18:23:12;;;;;;;3.25;2.03;;;;;;;20.27;37.23;101385.41;10279567;28;20039;-76
2023/06/13 18:28:14;;;;;;;4.63;2.03;;;;;;;20.07;37.89;101389.66;10277380;29;20395;-78
2023/06/13 18:33:17;;;;;;;7.20;2.22;;;;;;;20.01;37.99;101399.34;10279237;29;20065;-78
2023/06/13 18:38:19;;;;;;;4.97;2.42;;;;;;;19.97;37.75;101401.97;10279608;29;20040;-76
2023/06/13 18:43:23;;;;;;;5.93;3.53;;;;;;;20.13;37.88;101389.19;10274571;28;20055;-79
2023/06/13 18:48:26;;;;;;;4.97;2.50;;;;;;;20.02;38.45;101393.44;10276365;29;20058;-78
2023/06/13 18:53:30;;;;;;;6.30;2.85;;;;;;;20.09;38.21;101398.50;10277306;28;20051;-75
2023/06/13 18:58:32;;;;;;;6.25;3.05;;;;;;;19.96;39.26;101394.75;10240488;29;20059;-78
2023/06/13 19:03:34;;;;;;;11.25;5.18;;;;;;;19.84;40.03;101397.34;10242198;29;20059;-77
2023/06/13 19:08:36;;;;;;;7.10;3.15;;;;;;;;;;10259518;29;20047;-77
2023/06/13 19:13:38;;;;;;;7.22;3.25;;;;;;;19.90;39.86;101396.03;10279869;29;20106;-78
2023/06/13 19:18:41;;;;;;;5.68;2.42;;;;;;;19.88;40.51;101393.56;10275578;29;20410;-78
2023/06/13 19:23:43;;;;;;;4.60;3.10;;;;;;;;;;10279511;29;20131;-76
2023/06/13 19:28:44;;;;;;;6.32;3.28;;;;;;;19.87;40.52;101399.47;10273917;29;20540;-77
2023/06/13 19:33:47;;;;;;;5.47;2.85;;;;;;;19.73;41.45;101391.25;10271554;28;20050;-79
2023/06/13 19:38:49;;;;;;;3.88;2.38;;;;;;;19.77;41.65;101392.22;10294939;28;20051;-76
2023/06/13 19:43:51;;;;;;;4.22;2.92;;;;;;;19.71;42.67;101392.72;10280919;29;20047;-77
2023/06/13 19:48:53;;;;;;;7.55;2.70;;;;;;;19.60;43.05;101399.72;10278984;29;20052;-77
2023/06/13 19:53:56;;;;;;;3.97;2.83;;;;;;;19.29;43.67;101403.38;10280312;28;20051;-78
2023/06/13 19:58:58;;;;;;;3.97;2.88;;;;;;;19.43;43.41;101401.28;10279591;29;20039;-76
2023/06/13 20:04:01;;;;;;;3.15;2.00;;;;;;;19.50;43.54;101403.63;10277718;29;20498;-77
2023/06/13 20:09:04;;;;;;;4.70;2.28;;;;;;;19.37;44.30;101404.53;10292158;28;20055;-76
2023/06/13 20:14:07;;;;;;;4.40;2.17;;;;;;;19.09;45.13;101403.91;10274694;28;20047;-77
2023/06/13 20:19:09;;;;;;;5.38;2.40;;;;;;;19.07;45.22;101403.44;10284194;28;20043;-76
2023/06/13 20:24:13;;;;;;;2.67;2.03;;;;;;;19.10;45.26;101411.16;10280890;28;20042;-77
2023/06/13 20:29:15;;;;;;;3.17;2.20;;;;;;;19.00;46.03;101401.13;10281768;28;20058;-77
2023/06/13 20:34:18;;;;;;;5.28;2.15;;;;;;;19.15;45.62;101397.91;10262981;29;20047;-77
2023/06/13 20:39:20;;;;;;;4.53;2.20;;;;;;;19.07;46.03;101403.44;10281532;28;20564;-77
2023/06/13 20:44:22;;;;;;;7.13;2.67;;;;;;;18.75;46.61;101402.63;10281681;28;20058;-81
2023/06/13 20:49:24;;;;;;;6.00;2.40;;;;;;;18.87;46.83;101399.22;10283182;29;20051;-79
2023/06/13 20:54:29;;;;;;;7.35;2.78;;;;;;;18.79;47.00;101402.81;10257978;28;20062;-76
2023/06/13 20:59:31;;;;;;;4.30;2.60;;;;;;;18.58;47.87;101411.63;10283800;29;20047;-80
2023/06/13 21:04:33;;;;;;;5.03;2.80;;;;;;;18.31;48.81;101401.44;10276651;28;20047;-79
2023/06/13 21:09:35;;;;;;;4.07;2.80;;;;;;;18.34;48.79;101406.38;10271578;29;20043;-80
2023/06/13 21:14:41;;;;;;;8.10;3.00;;;;;;;18.34;49.39;101413.88;10252526;29;20064;-78
2023/06/13 21:19:43;;;;;;;4.25;3.03;;;;;;;18.17;49.43;101428.44;10267834;29;20063;-78
2023/06/13 21:24:45;;;;;;;5.22;2.72;;;;;;;18.10;49.80;101430.03;10252651;29;20051;-77
2023/06/13 21:29:47;;;;;;;5.88;2.65;;;;;;;17.77;50.08;101435.72;10278503;28;20498;-77
2023/06/13 21:34:49;;;;;;;4.57;2.85;;;;;;;17.48;50.54;101434.06;10267634;29;20041;-78
2023/06/13 21:39:52;;;;;;;3.40;2.55;;;;;;;17.41;50.53;101432.84;10284642;29;20043;-79
2023/06/13 21:44:55;;;;;;;8.45;2.47;;;;;;;17.40;50.93;101436.75;10283617;29;20059;-80
2023/06/13 21:49:57;;;;;;;4.25;2.45;;;;;;;17.44;51.59;101432.22;10279719;28;20044;-79
2023/06/13 21:55:07;;;;;;;5.93;2.70;;;;;;;17.38;52.41;101430.69;10284655;29;20047;-81
2023/06/13 22:00:15;;;;;;;3.75;2.50;;;;;;;17.50;52.11;101425.44;10283327;29;20048;-79
2023/06/13 22:05:20;;;;;;;4.60;2.60;;;;;;;17.64;52.48;101428.22;10258860;29;20059;-78
2023/06/13 22:10:23;;;;;;;2.97;2.20;;;;;;;17.83;52.07;101433.66;10283262;28;20047;-79
2023/06/13 22:15:25;;;;;;;4.38;2.60;;;;;;;18.06;51.92;101441.75;10282466;28;20514;-77
2023/06/13 22:20:28;;;;;;;6.00;2.60;;;;;;;18.02;52.25;101434.34;10283670;28;20578;-79
2023/06/13 22:25:30;;;;;;;3.55;2.55;;;;;;;17.86;52.65;101431.09;10281113;28;20066;-81
2023/06/13 22:30:32;;;;;;;3.17;2.30;;;;;;;17.95;52.68;101439.53;10281376;29;20039;-79
2023/06/13 22:35:35;;;;;;;6.60;2.60;;;;;;;17.64;54.05;101431.81;10282068;28;20054;-79
2023/06/13 22:40:37;;;;;;;3.45;2.72;;;;;;;17.36;55.55;101424.63;10276253;28;20043;-79
2023/06/13 22:45:40;;;;;;;5.50;3.35;;;;;;;17.22;56.07;101416.28;10275145;28;20055;-80
2023/06/13 22:50:42;;;;;;;2.80;2.22;;;;;;;17.41;55.90;101422.56;10281537;28;20050;-79
2023/06/13 22:55:44;;;;;;;4.45;2.42;;;;;;;17.54;56.02;101437.56;10281600;29;20035;-79
2023/06/13 23:00:47;;;;;;;5.60;3.00;;;;;;;17.56;56.21;101421.44;10281146;29;20055;-79
2023/06/13 23:05:49;;;;;;;5.55;3.00;;;;;;;17.52;56.36;101428.72;10272758;29;20051;-79
2023/06/13 23:10:54;;;;;;;5.93;3.10;;;;;;;17.61;56.24;101429.66;10282748;29;20039;-78
2023/06/13 23:15:58;;;;;;;5.15;3.15;;;;;;;17.51;55.98;101432.63;10280728;28;20051;-78
2023/06/13 23:21:00;;;;;;;4.82;2.65;;;;;;;17.48;56.68;101428.50;10281459;29;20058;-78